Time;durP1;ratioP1;P1;durP2;ratioP2;P2;SDS_P1;SDS_P2;PMS_P1;PMS_P2;Temp;Humidity;BMP_temperature;BMP_pressure;BME280_temperature;BME280_humidity;BME280_pressure;Samples;Min_cycle;Max_cycle;Signal;HPM_P1;HPM_P2
2022/07/02 00:02:12;;;;;;;1.50;1.30;;;20.80;54.20;;;;;;5088887;27;20392;-92
2022/07/02 00:04:43;;;;;;;1.67;1.30;;;20.80;54.20;;;;;;5115395;28;20058;-92
2022/07/02 00:07:10;;;;;;;1.58;1.48;;;20.70;54.20;;;;;;5120768;27;20031;-91
2022/07/02 00:09:37;;;;;;;1.77;1.40;;;20.70;54.30;;;;;;5105504;27;20011;-92
2022/07/02 00:12:03;;;;;;;1.40;1.30;;;20.70;54.30;;;;;;5097765;27;20019;-92
2022/07/02 00:14:31;;;;;;;1.20;1.10;;;20.70;54.30;;;;;;5092390;28;20459;-93
2022/07/02 00:16:58;;;;;;;1.77;1.13;;;20.60;54.30;;;;;;5126501;27;20031;-92
2022/07/02 00:19:24;;;;;;;1.27;1.15;;;20.60;54.40;;;;;;5125494;27;20019;-91
2022/07/02 00:21:50;;;;;;;1.85;1.50;;;20.60;54.50;;;;;;5124963;27;20489;-89
2022/07/02 00:24:16;;;;;;;2.00;1.30;;;20.60;54.50;;;;;;5109008;27;20032;-92
2022/07/02 00:26:54;;;;;;;2.33;1.50;;;20.50;54.50;;;;;;5116718;27;20019;-92
2022/07/02 00:29:26;;;;;;;1.98;1.40;;;20.50;54.50;;;;;;5135558;27;20047;-92
2022/07/02 00:31:53;;;;;;;1.73;1.50;;;20.50;54.50;;;;;;5090360;27;20022;-92
2022/07/02 00:34:21;;;;;;;1.60;1.25;;;20.50;54.60;;;;;;5087548;27;20027;-92
2022/07/02 00:36:48;;;;;;;1.42;1.33;;;20.40;54.60;;;;;;5099999;27;20395;-93
2022/07/02 00:39:14;;;;;;;1.42;1.30;;;20.40;54.70;;;;;;5105740;27;20023;-94
2022/07/02 00:41:40;;;;;;;1.65;1.40;;;20.40;54.70;;;;;;5122418;27;20320;-93
2022/07/02 00:44:07;;;;;;;2.25;1.48;;;20.30;54.70;;;;;;5106098;27;20027;-92
2022/07/02 00:46:35;;;;;;;1.60;1.50;;;20.30;54.70;;;;;;5118971;27;20110;-93
2022/07/02 00:49:01;;;;;;;1.83;1.50;;;20.30;54.80;;;;;;5095859;27;20038;-91
2022/07/02 00:51:27;;;;;;;1.20;1.10;;;20.30;54.90;;;;;;5114544;27;20059;-93
2022/07/02 00:53:53;;;;;;;1.90;1.50;;;20.20;54.80;;;;;;5104992;27;20060;-91
2022/07/02 00:56:20;;;;;;;1.33;1.23;;;20.20;54.90;;;;;;5115064;27;20024;-92
2022/07/02 00:58:47;;;;;;;2.38;1.52;;;20.20;54.90;;;;;;5142342;27;20030;-92
2022/07/02 01:01:13;;;;;;;1.80;1.45;;;20.20;55.00;;;;;;5104184;27;20098;-90
2022/07/02 01:03:41;;;;;;;2.08;1.40;;;20.10;55.00;;;;;;5148695;27;20027;-91
2022/07/02 01:06:07;;;;;;;1.65;1.30;;;20.10;55.00;;;;;;5126334;27;20040;-92
2022/07/02 01:11:19;;;;;;;1.92;1.50;;;20.10;55.10;;;;;;5114320;27;20036;-94
2022/07/02 01:13:44;;;;;;;2.17;1.40;;;20.00;55.10;;;;;;5106217;28;20196;-91
2022/07/02 01:16:10;;;;;;;1.33;1.23;;;20.00;55.20;;;;;;5136223;27;20046;-92
2022/07/02 01:18:37;;;;;;;1.70;1.30;;;20.00;55.20;;;;;;5090989;28;20048;-93
2022/07/02 01:21:03;;;;;;;2.08;1.33;;;20.00;55.20;;;;;;5092657;28;20047;-92
2022/07/02 01:23:29;;;;;;;1.55;1.40;;;19.90;55.20;;;;;;5119359;27;20038;-93
2022/07/02 01:25:55;;;;;;;2.70;1.60;;;19.90;55.30;;;;;;5105249;27;20377;-91
2022/07/02 01:28:21;;;;;;;1.80;1.50;;;19.90;55.30;;;;;;5098361;28;20492;-92
2022/07/02 01:30:49;;;;;;;1.73;1.52;;;19.90;55.30;;;;;;5116673;27;20073;-92
2022/07/02 01:33:15;;;;;;;1.83;1.52;;;19.90;55.40;;;;;;5083080;28;20031;-93
2022/07/02 01:35:41;;;;;;;1.40;1.30;;;19.80;55.40;;;;;;5102498;28;20051;-92
2022/07/02 01:38:07;;;;;;;1.80;1.52;;;19.80;55.40;;;;;;5108677;28;20466;-91
2022/07/02 01:40:33;;;;;;;2.72;1.65;;;19.80;55.40;;;;;;5136807;28;20109;-89
2022/07/02 01:42:58;;;;;;;2.22;1.55;;;19.80;55.50;;;;;;5123021;28;20037;-92
2022/07/02 01:45:24;;;;;;;1.73;1.60;;;19.80;55.50;;;;;;5120055;28;20093;-92
2022/07/02 01:47:50;;;;;;;1.55;1.45;;;19.80;55.60;;;;;;5095848;28;20035;-92
2022/07/02 01:50:16;;;;;;;1.42;1.33;;;19.70;55.60;;;;;;5118003;28;20027;-93
2022/07/02 01:52:42;;;;;;;1.58;1.48;;;19.70;55.60;;;;;;5113660;28;20032;-92
2022/07/02 01:55:08;;;;;;;1.83;1.40;;;19.70;55.60;;;;;;5114133;28;20031;-92
2022/07/02 01:57:35;;;;;;;2.13;1.92;;;19.60;55.60;;;;;;5117578;28;20023;-93
2022/07/02 02:00:10;;;;;;;2.30;1.60;;;19.60;55.70;;;;;;5118010;28;20034;-91
2022/07/02 02:02:35;;;;;;;2.00;1.60;;;19.60;55.80;;;;;;5088059;28;20107;-92
2022/07/02 02:05:01;;;;;;;1.60;1.45;;;19.60;55.70;;;;;;5107294;28;20131;-92
2022/07/02 02:07:28;;;;;;;1.95;1.67;;;19.50;55.70;;;;;;5094736;28;20118;-91
2022/07/02 02:09:54;;;;;;;2.63;1.58;;;19.50;55.90;;;;;;5093990;28;20027;-91
2022/07/02 02:12:21;;;;;;;1.48;1.38;;;19.50;55.80;;;;;;5120147;28;20023;-91
2022/07/02 02:14:47;;;;;;;1.50;1.40;;;19.50;55.90;;;;;;5100532;28;20122;-92
2022/07/02 02:17:12;;;;;;;1.70;1.60;;;19.50;55.90;;;;;;5114771;28;20062;-92
2022/07/02 02:19:38;;;;;;;1.83;1.50;;;19.40;55.90;;;;;;5103466;28;20416;-93
2022/07/02 02:22:04;;;;;;;2.03;1.70;;;19.40;55.90;;;;;;5099703;28;20032;-90
2022/07/02 02:24:30;;;;;;;1.83;1.60;;;19.40;55.90;;;;;;5100173;28;20038;-91
2022/07/02 02:26:57;;;;;;;1.73;1.50;;;19.40;56.00;;;;;;5116330;28;20020;-91
2022/07/02 02:29:23;;;;;;;1.77;1.60;;;19.30;56.00;;;;;;5103153;28;20091;-92
2022/07/02 02:31:49;;;;;;;2.03;1.65;;;19.30;56.00;;;;;;5106864;28;20055;-93
2022/07/02 02:34:14;;;;;;;1.75;1.60;;;19.30;56.10;;;;;;5111898;28;20081;-91
2022/07/02 02:36:40;;;;;;;2.00;1.73;;;19.30;56.10;;;;;;5097906;28;20127;-91
2022/07/02 02:39:06;;;;;;;1.60;1.50;;;19.30;56.10;;;;;;5110069;28;20475;-91
2022/07/02 02:41:32;;;;;;;1.75;1.52;;;19.20;56.10;;;;;;5072524;27;20122;-89
2022/07/02 02:43:57;;;;;;;1.88;1.65;;;19.20;56.20;;;;;;5119176;28;20125;-90
2022/07/02 02:46:23;;;;;;;1.85;1.50;;;19.20;56.20;;;;;;5135509;27;20034;-89
2022/07/02 02:48:49;;;;;;;2.47;1.60;;;19.20;56.20;;;;;;5118256;27;20084;-90
2022/07/02 02:51:15;;;;;;;1.95;1.42;;;19.10;56.20;;;;;;5080753;27;20031;-91
2022/07/02 02:53:44;;;;;;;2.45;1.67;;;19.10;56.20;;;;;;5090454;28;20058;-90
2022/07/02 02:56:11;;;;;;;2.28;1.80;;;19.10;56.30;;;;;;5099201;27;20024;-91
2022/07/02 02:58:37;;;;;;;1.80;1.50;;;19.10;56.30;;;;;;5135624;27;20031;-91
2022/07/02 03:01:04;;;;;;;1.55;1.42;;;19.10;56.40;;;;;;5117977;27;20027;-91
2022/07/02 03:03:30;;;;;;;1.73;1.52;;;19.00;56.40;;;;;;5091723;27;20034;-88
2022/07/02 03:05:56;;;;;;;1.50;1.40;;;19.00;56.40;;;;;;5101574;27;20024;-90
2022/07/02 03:08:22;;;;;;;1.60;1.40;;;19.00;56.40;;;;;;5093773;28;20110;-91
2022/07/02 03:10:48;;;;;;;2.10;1.90;;;19.00;56.50;;;;;;5117680;27;20035;-90
2022/07/02 03:13:15;;;;;;;2.72;1.60;;;19.00;56.50;;;;;;5117057;27;20490;-91
2022/07/02 03:15:40;;;;;;;1.73;1.60;;;18.90;56.50;;;;;;5081470;27;20059;-91
2022/07/02 03:18:06;;;;;;;1.65;1.50;;;18.90;56.50;;;;;;5115341;27;20486;-91
2022/07/02 03:20:32;;;;;;;2.40;1.83;;;18.90;56.60;;;;;;5087515;27;20467;-91
2022/07/02 03:22:59;;;;;;;1.73;1.50;;;18.90;56.60;;;;;;5117221;27;20110;-90
2022/07/02 03:25:26;;;;;;;2.55;1.67;;;18.90;57.30;;;;;;5113540;27;20023;-91
2022/07/02 03:27:56;;;;;;;1.70;1.60;;;18.80;56.60;;;;;;5092218;27;20024;-91
2022/07/02 03:30:22;;;;;;;2.03;1.60;;;18.80;56.60;;;;;;5099422;27;20038;-91
2022/07/02 03:32:47;;;;;;;1.75;1.50;;;18.80;56.70;;;;;;5083804;27;20065;-91
2022/07/02 03:35:13;;;;;;;1.67;1.58;;;18.80;56.70;;;;;;5109031;27;20043;-91
2022/07/02 03:37:39;;;;;;;1.52;1.42;;;18.80;56.80;;;;;;5116583;27;20020;-91
2022/07/02 03:40:05;;;;;;;1.83;1.70;;;18.70;56.70;;;;;;5128474;27;20400;-88
2022/07/02 03:42:31;;;;;;;1.88;1.67;;;18.70;56.80;;;;;;5132511;27;20027;-91
2022/07/02 03:44:57;;;;;;;1.73;1.60;;;18.70;56.80;;;;;;5097725;27;20034;-91
2022/07/02 03:47:22;;;;;;;2.63;1.65;;;18.70;56.80;;;;;;5081342;27;20059;-91
2022/07/02 03:49:48;;;;;;;1.50;1.40;;;18.70;56.90;;;;;;5065901;27;20122;-91
2022/07/02 03:52:14;;;;;;;2.08;1.60;;;18.60;56.80;;;;;;5115457;27;20027;-91
2022/07/02 03:54:40;;;;;;;2.17;1.70;;;18.70;57.00;;;;;;5094682;27;20431;-91
2022/07/02 03:57:06;;;;;;;2.17;1.88;;;18.60;56.90;;;;;;5078096;27;20055;-91
2022/07/02 03:59:32;;;;;;;2.58;1.60;;;18.60;57.00;;;;;;5081620;27;20114;-91
2022/07/02 04:01:58;;;;;;;1.92;1.60;;;18.60;57.00;;;;;;5106737;27;20475;-90
2022/07/02 04:04:24;;;;;;;2.83;1.50;;;18.60;57.10;;;;;;5095812;27;20046;-91
2022/07/02 04:06:49;;;;;;;2.25;1.48;;;18.60;57.10;;;;;;5111283;28;20023;-91
2022/07/02 04:09:15;;;;;;;1.52;1.42;;;18.50;57.00;;;;;;5088616;28;20027;-91
2022/07/02 04:11:41;;;;;;;1.77;1.58;;;18.60;57.10;;;;;;5115338;27;20067;-90
2022/07/02 04:14:07;;;;;;;1.73;1.60;;;18.50;57.10;;;;;;5091797;28;20035;-92
2022/07/02 04:16:33;;;;;;;1.70;1.60;;;18.50;57.10;;;;;;5113887;27;20066;-92
2022/07/02 04:18:58;;;;;;;1.73;1.52;;;18.50;57.20;;;;;;5094299;27;20448;-90
2022/07/02 04:21:26;;;;;;;2.22;1.77;;;18.50;57.20;;;;;;5131521;27;20034;-90
2022/07/02 04:23:52;;;;;;;2.08;1.70;;;18.50;57.20;;;;;;5122458;27;20035;-89
2022/07/02 04:26:18;;;;;;;1.70;1.52;;;18.50;57.30;;;;;;5114010;28;20408;-90
2022/07/02 04:28:44;;;;;;;2.20;1.58;;;18.50;57.30;;;;;;5100204;27;20019;-91
2022/07/02 04:31:09;;;;;;;1.80;1.67;;;18.50;57.30;;;;;;5093985;27;20028;-89
2022/07/02 04:33:35;;;;;;;2.22;1.70;;;18.40;57.30;;;;;;5122117;27;20027;-91
2022/07/02 04:36:01;;;;;;;1.85;1.70;;;18.50;57.40;;;;;;5075477;27;20460;-92
2022/07/02 04:38:27;;;;;;;1.73;1.50;;;18.40;57.40;;;;;;5106458;27;20019;-91
2022/07/02 04:40:53;;;;;;;2.15;1.70;;;18.40;57.40;;;;;;5094576;28;20488;-89
2022/07/02 04:43:19;;;;;;;1.70;1.60;;;18.40;57.40;;;;;;5102730;27;20027;-88
2022/07/02 04:45:44;;;;;;;2.03;1.80;;;18.40;57.40;;;;;;5120076;27;20026;-91
2022/07/02 04:48:10;;;;;;;2.30;1.90;;;18.40;57.50;;;;;;5114356;28;20107;-90
2022/07/02 04:50:36;;;;;;;1.92;1.60;;;18.40;57.50;;;;;;5098802;27;20028;-91
2022/07/02 04:53:02;;;;;;;2.88;1.73;;;18.40;57.50;;;;;;5110307;28;20112;-90
2022/07/02 04:55:28;;;;;;;1.50;1.38;;;18.40;57.60;;;;;;5112341;28;20032;-90
2022/07/02 04:57:53;;;;;;;1.75;1.63;;;18.40;57.60;;;;;;5093903;27;20084;-90
2022/07/02 05:00:19;;;;;;;1.85;1.65;;;18.40;57.60;;;;;;5093547;27;20031;-92
2022/07/02 05:02:45;;;;;;;1.95;1.73;;;18.40;57.70;;;;;;5097802;27;20358;-92
2022/07/02 05:05:11;;;;;;;1.67;1.58;;;18.40;57.60;;;;;;5078512;28;20383;-91
2022/07/02 05:07:38;;;;;;;2.20;1.65;;;18.40;58.30;;;;;;5092245;28;20031;-91
2022/07/02 05:10:04;;;;;;;2.83;2.17;;;18.40;57.70;;;;;;5113163;27;20053;-90
2022/07/02 05:12:29;;;;;;;2.28;1.65;;;18.40;57.70;;;;;;5097402;27;20531;-91
2022/07/02 05:14:55;;;;;;;1.77;1.63;;;18.40;57.70;;;;;;5086865;28;20043;-92
2022/07/02 05:17:21;;;;;;;1.52;1.42;;;18.40;57.70;;;;;;5078036;27;20471;-90
2022/07/02 05:19:47;;;;;;;3.15;1.52;;;18.40;57.70;;;;;;5091892;27;20027;-92
2022/07/02 05:22:12;;;;;;;1.88;1.67;;;18.40;57.70;;;;;;5116693;27;20110;-91
2022/07/02 05:24:38;;;;;;;1.98;1.60;;;18.40;57.80;;;;;;5088035;27;20032;-90
2022/07/02 05:27:04;;;;;;;1.67;1.58;;;18.40;57.80;;;;;;5098526;27;20023;-91
2022/07/02 05:29:30;;;;;;;1.83;1.60;;;18.40;57.80;;;;;;5111262;27;20027;-91
2022/07/02 05:31:56;;;;;;;1.73;1.40;;;18.40;57.80;;;;;;5081593;27;20079;-92
2022/07/02 05:34:22;;;;;;;2.72;1.70;;;18.40;57.80;;;;;;5113006;28;20043;-92
2022/07/02 05:36:47;;;;;;;1.58;1.42;;;18.40;57.80;;;;;;5076966;28;20702;-92
2022/07/02 05:39:13;;;;;;;1.45;1.30;;;18.40;57.90;;;;;;5064349;28;20031;-91
2022/07/02 05:41:39;;;;;;;1.75;1.65;;;18.50;58.00;;;;;;5088800;28;20032;-90
2022/07/02 05:44:05;;;;;;;1.75;1.50;;;18.50;57.90;;;;;;5095126;28;20023;-91
2022/07/02 05:46:31;;;;;;;2.22;1.50;;;18.50;57.90;;;;;;5098023;28;20039;-91
2022/07/02 05:48:57;;;;;;;1.30;1.20;;;18.50;57.90;;;;;;5087920;28;20052;-91
2022/07/02 05:51:23;;;;;;;1.50;1.40;;;18.50;57.90;;;;;;5090952;28;20054;-90
2022/07/02 05:53:48;;;;;;;1.77;1.50;;;18.50;57.80;;;;;;5079346;28;20031;-92
2022/07/02 05:56:14;;;;;;;1.50;1.38;;;18.50;57.80;;;;;;5095130;28;20046;-92
2022/07/02 05:58:40;;;;;;;1.80;1.50;;;18.50;57.80;;;;;;5097972;28;20027;-92
2022/07/02 06:01:06;;;;;;;1.50;1.33;;;18.60;57.90;;;;;;5112508;28;20035;-91
2022/07/02 06:03:32;;;;;;;2.40;1.30;;;18.60;57.80;;;;;;5112905;28;20043;-91
2022/07/02 06:08:42;;;;;;;1.27;1.17;;;18.60;57.80;;;;;;5107613;28;20487;-91
2022/07/02 06:11:08;;;;;;;1.73;1.20;;;18.60;57.70;;;;;;5108595;28;20076;-92
2022/07/02 06:13:36;;;;;;;1.45;1.35;;;18.60;57.70;;;;;;5061065;28;20027;-92
2022/07/02 06:16:02;;;;;;;1.70;1.10;;;18.70;57.80;;;;;;5084654;27;20046;-92
2022/07/02 06:18:28;;;;;;;1.33;1.17;;;18.70;57.80;;;;;;5117620;27;20027;-91
2022/07/02 06:20:54;;;;;;;1.92;1.10;;;18.70;57.80;;;;;;5094723;27;20067;-91
2022/07/02 06:23:21;;;;;;;1.40;1.20;;;18.70;57.80;;;;;;5116150;27;20458;-92
2022/07/02 06:25:48;;;;;;;1.20;1.10;;;18.80;57.90;;;;;;5101952;27;20073;-91
2022/07/02 06:28:15;;;;;;;2.17;1.60;;;18.80;57.80;;;;;;5134304;27;20055;-90
2022/07/02 06:30:40;;;;;;;1.30;1.20;;;18.80;57.80;;;;;;5110073;27;20102;-93
2022/07/02 06:33:06;;;;;;;1.70;1.20;;;18.90;57.80;;;;;;5104199;27;20157;-91
2022/07/02 06:35:32;;;;;;;1.17;1.08;;;18.90;57.80;;;;;;5093470;27;20130;-92
2022/07/02 06:37:58;;;;;;;1.08;1.00;;;18.90;57.80;;;;;;5118902;27;20039;-90
2022/07/02 06:40:24;;;;;;;1.42;1.20;;;18.90;57.70;;;;;;5101824;27;20024;-94
2022/07/02 06:42:50;;;;;;;1.23;1.13;;;18.90;57.70;;;;;;5098194;27;20024;-87
2022/07/02 06:45:16;;;;;;;1.20;1.15;;;19.00;57.80;;;;;;5094786;27;20498;-90
2022/07/02 06:47:42;;;;;;;1.15;1.05;;;19.00;57.70;;;;;;5084184;27;20473;-88
2022/07/02 06:50:09;;;;;;;1.00;1.00;;;19.00;57.70;;;;;;5114332;27;20030;-91
2022/07/02 06:52:35;;;;;;;1.38;1.20;;;19.10;58.40;;;;;;5101798;27;20028;-89
2022/07/02 06:55:01;;;;;;;1.15;1.00;;;19.10;57.60;;;;;;5112340;27;20055;-88
2022/07/02 06:57:27;;;;;;;1.50;1.30;;;19.20;57.70;;;;;;5106844;27;20043;-90
2022/07/02 06:59:53;;;;;;;1.15;1.08;;;19.20;57.60;;;;;;5079851;27;20015;-84
2022/07/02 07:02:19;;;;;;;1.05;0.95;;;19.20;57.60;;;;;;5111037;28;20024;-85
2022/07/02 07:04:45;;;;;;;1.15;1.00;;;19.20;58.20;;;;;;5081719;27;20282;-86
2022/07/02 07:07:11;;;;;;;1.15;0.95;;;19.30;57.50;;;;;;5094980;28;20478;-85
2022/07/02 07:09:37;;;;;;;1.10;1.00;;;19.30;57.50;;;;;;5094608;27;20016;-87
2022/07/02 07:12:05;;;;;;;1.20;1.10;;;19.30;57.40;;;;;;5089605;27;20026;-86
2022/07/02 07:14:32;;;;;;;0.95;0.90;;;19.40;57.50;;;;;;5108186;27;20034;-86
2022/07/02 07:16:58;;;;;;;1.35;1.00;;;19.40;57.40;;;;;;5106744;27;20027;-86
2022/07/02 07:19:24;;;;;;;1.10;1.00;;;19.50;57.40;;;;;;5100048;27;20068;-86
2022/07/02 07:21:50;;;;;;;1.35;1.00;;;19.40;57.30;;;;;;5128004;27;20039;-87
2022/07/02 07:24:15;;;;;;;1.10;1.00;;;19.50;57.30;;;;;;5114592;27;20034;-86
2022/07/02 07:26:41;;;;;;;0.93;0.93;;;19.50;57.30;;;;;;5077159;27;20072;-87
2022/07/02 07:29:07;;;;;;;0.90;0.90;;;19.60;57.30;;;;;;5117572;27;20070;-85
2022/07/02 07:31:34;;;;;;;1.10;1.00;;;19.60;57.90;;;;;;5088759;28;20471;-84
2022/07/02 07:34:01;;;;;;;0.95;0.95;;;19.60;57.20;;;;;;5115234;27;20037;-84
2022/07/02 07:36:27;;;;;;;0.93;0.93;;;19.70;57.20;;;;;;5075671;27;20051;-84
2022/07/02 07:38:53;;;;;;;0.95;0.90;;;19.70;57.10;;;;;;5082936;27;20406;-84
2022/07/02 07:41:21;;;;;;;1.20;0.98;;;19.80;57.10;;;;;;5091315;27;20034;-83
2022/07/02 07:43:47;;;;;;;0.80;0.80;;;19.80;57.00;;;;;;5128532;27;20061;-83
2022/07/02 07:46:13;;;;;;;0.90;0.90;;;19.90;57.00;;;;;;5130235;27;20067;-85
2022/07/02 07:48:39;;;;;;;1.13;0.90;;;19.90;56.80;;;;;;5084098;27;20371;-82
2022/07/02 07:51:05;;;;;;;1.23;1.00;;;20.00;56.80;;;;;;5096823;28;20032;-86
2022/07/02 07:53:31;;;;;;;0.80;0.80;;;20.00;56.70;;;;;;5116853;27;20087;-84
2022/07/02 07:55:58;;;;;;;0.80;0.80;;;20.10;56.70;;;;;;5100534;27;20027;-88
2022/07/02 07:58:23;;;;;;;1.30;1.13;;;20.10;56.60;;;;;;5108341;27;20098;-90
2022/07/02 08:00:49;;;;;;;0.90;0.90;;;20.20;56.50;;;;;;5058366;27;20387;-86
2022/07/02 08:03:17;;;;;;;1.15;0.90;;;20.30;56.80;;;;;;5090517;28;20031;-87
2022/07/02 08:05:46;;;;;;;1.83;1.10;;;20.40;56.60;;;;;;5108137;27;20035;-85
2022/07/02 08:08:13;;;;;;;1.80;1.08;;;20.50;56.50;;;;;;5116537;27;20492;-88
2022/07/02 08:10:39;;;;;;;1.38;0.80;;;20.60;56.30;;;;;;5117192;27;20496;-89
2022/07/02 08:13:05;;;;;;;0.95;0.90;;;20.70;56.30;;;;;;5136747;27;20031;-88
2022/07/02 08:15:31;;;;;;;0.77;0.77;;;20.80;56.10;;;;;;5090255;28;20063;-88
2022/07/02 08:17:57;;;;;;;1.27;0.88;;;20.90;55.80;;;;;;5132007;27;20027;-90
2022/07/02 08:20:23;;;;;;;1.98;0.98;;;21.00;55.60;;;;;;5085534;27;20023;-89
2022/07/02 08:22:50;;;;;;;1.48;0.95;;;21.10;55.40;;;;;;5133861;27;20113;-89
2022/07/02 08:25:17;;;;;;;1.58;0.88;;;21.20;55.40;;;;;;5090927;28;20032;-89
2022/07/02 08:27:43;;;;;;;1.05;1.05;;;21.30;55.10;;;;;;5131162;27;20083;-90
2022/07/02 08:30:10;;;;;;;2.40;0.90;;;21.30;55.00;;;;;;5100451;27;20027;-89
2022/07/02 08:32:36;;;;;;;2.15;0.85;;;21.50;54.90;;;;;;5112791;28;20168;-89
2022/07/02 08:35:03;;;;;;;2.75;1.13;;;21.50;54.80;;;;;;5110505;28;20127;-90
2022/07/02 08:37:30;;;;;;;1.25;1.05;;;21.60;54.70;;;;;;5115340;27;20106;-89
2022/07/02 08:39:56;;;;;;;2.15;1.00;;;21.70;54.80;;;;;;5093523;28;20035;-92
2022/07/02 08:42:27;;;;;;;1.75;1.08;;;21.90;54.80;;;;;;5115874;27;20027;-93
2022/07/02 08:44:56;;;;;;;1.88;0.90;;;21.90;54.80;;;;;;5116894;27;20043;-90
2022/07/02 08:47:23;;;;;;;2.40;0.82;;;22.10;54.80;;;;;;5132588;27;20485;-90
2022/07/02 08:49:52;;;;;;;1.95;0.90;;;22.10;54.60;;;;;;5108803;27;20030;-94
2022/07/02 08:52:19;;;;;;;1.88;0.88;;;22.30;54.30;;;;;;5086012;28;20073;-88
2022/07/02 08:54:46;;;;;;;2.00;0.95;;;22.30;54.00;;;;;;5094777;28;20034;-91
2022/07/02 08:57:14;;;;;;;2.25;0.90;;;22.40;53.70;;;;;;5102928;28;20023;-89
2022/07/02 08:59:40;;;;;;;0.93;0.90;;;22.50;53.40;;;;;;5097078;27;20035;-87
2022/07/02 09:02:07;;;;;;;1.02;0.80;;;22.60;53.30;;;;;;5106551;27;20023;-88
2022/07/02 09:04:34;;;;;;;1.15;0.88;;;22.70;53.20;;;;;;5086441;28;20027;-89
2022/07/02 09:07:03;;;;;;;2.03;0.95;;;22.80;53.00;;;;;;5099559;27;20015;-89
2022/07/02 09:09:30;;;;;;;1.13;0.80;;;22.90;53.10;;;;;;5102034;28;20551;-91
2022/07/02 09:11:57;;;;;;;1.60;0.80;;;23.00;53.10;;;;;;5109201;27;20061;-85
2022/07/02 09:14:23;;;;;;;1.92;1.02;;;23.10;53.10;;;;;;5111344;27;20031;-87
2022/07/02 09:16:50;;;;;;;2.00;1.00;;;23.20;53.10;;;;;;5120995;27;20031;-87
2022/07/02 09:19:17;;;;;;;1.33;0.90;;;23.30;53.10;;;;;;5125145;27;20020;-86
2022/07/02 09:21:50;;;;;;;0.95;0.70;;;23.40;52.90;;;;;;5126783;27;20027;-87
2022/07/02 09:24:30;;;;;;;1.75;0.98;;;23.50;52.70;;;;;;5096334;27;20088;-86
2022/07/02 09:27:03;;;;;;;1.23;0.80;;;23.60;52.50;;;;;;5094058;27;20458;-85
2022/07/02 09:29:43;;;;;;;2.08;0.82;;;23.70;52.00;;;;;;5120517;27;20066;-84
2022/07/02 09:32:09;;;;;;;1.50;0.70;;;23.80;51.70;;;;;;5131736;27;20091;-88
2022/07/02 09:34:50;;;;;;;0.80;0.80;;;23.80;51.50;;;;;;5108579;28;20499;-84
2022/07/02 09:37:20;;;;;;;0.98;0.70;;;23.90;51.40;;;;;;5112627;28;20061;-83
2022/07/02 09:39:48;;;;;;;1.08;0.80;;;24.00;51.30;;;;;;5103369;28;20031;-87
2022/07/02 09:42:25;;;;;;;2.50;0.82;;;24.10;51.10;;;;;;5111590;28;20035;-86
2022/07/02 09:44:51;;;;;;;1.30;0.80;;;24.20;51.70;;;;;;5109960;28;20051;-88
2022/07/02 09:47:28;;;;;;;0.68;0.60;;;24.30;50.90;;;;;;5107812;28;20058;-86
2022/07/02 09:49:53;;;;;;;1.50;0.90;;;24.40;50.80;;;;;;5087481;28;20024;-85
2022/07/02 09:52:19;;;;;;;0.73;0.68;;;24.40;50.60;;;;;;5073579;27;20039;-84
2022/07/02 09:54:46;;;;;;;1.15;0.88;;;24.50;50.50;;;;;;5100064;27;20050;-82
2022/07/02 09:57:12;;;;;;;1.60;0.80;;;24.60;50.30;;;;;;5094041;27;20036;-85
2022/07/02 09:59:40;;;;;;;0.85;0.70;;;24.70;50.30;;;;;;5111242;27;20030;-94
2022/07/02 10:02:21;;;;;;;1.67;1.10;;;24.80;50.10;;;;;;5093228;27;20123;-84
2022/07/02 10:04:50;;;;;;;0.98;0.70;;;24.80;50.00;;;;;;5108496;27;20027;-87
2022/07/02 10:07:16;;;;;;;0.98;0.80;;;24.90;49.80;;;;;;5104007;27;20027;-85
2022/07/02 10:09:42;;;;;;;1.20;0.70;;;25.00;49.80;;;;;;5127695;27;20043;-83
2022/07/02 10:12:08;;;;;;;1.25;0.82;;;25.10;49.70;;;;;;5101987;27;20039;-88
2022/07/02 10:14:38;;;;;;;1.25;0.88;;;25.20;49.60;;;;;;5098310;28;20040;-87
2022/07/02 10:17:04;;;;;;;1.25;0.80;;;25.30;49.50;;;;;;5102074;27;20072;-85
2022/07/02 10:19:31;;;;;;;1.27;0.80;;;25.40;49.40;;;;;;5125753;27;20109;-87
2022/07/02 10:21:59;;;;;;;1.20;0.77;;;25.40;49.30;;;;;;5112793;27;20048;-86
2022/07/02 10:24:25;;;;;;;1.63;0.95;;;25.50;49.20;;;;;;5111703;28;20097;-83
2022/07/02 10:26:54;;;;;;;1.70;0.90;;;25.60;49.10;;;;;;5089985;28;20062;-82
2022/07/02 10:29:21;;;;;;;2.70;1.00;;;25.70;49.00;;;;;;5100162;27;20023;-83
2022/07/02 10:31:59;;;;;;;1.40;0.90;;;25.70;48.80;;;;;;5101073;27;20027;-84
2022/07/02 10:34:42;;;;;;;1.88;0.80;;;25.80;48.60;;;;;;5128233;27;20074;-87
2022/07/02 10:37:09;;;;;;;0.70;0.70;;;25.90;48.50;;;;;;5102211;27;20031;-90
2022/07/02 10:39:39;;;;;;;1.67;1.00;;;26.00;48.40;;;;;;5113217;27;20436;-84
2022/07/02 10:42:05;;;;;;;1.02;0.60;;;26.10;48.30;;;;;;5090600;27;20491;-83
2022/07/02 10:44:41;;;;;;;1.48;0.93;;;26.10;48.10;;;;;;5116636;27;20027;-86
2022/07/02 10:47:24;;;;;;;1.67;0.90;;;26.20;48.00;;;;;;5089863;28;20024;-86
2022/07/02 10:50:00;;;;;;;1.55;1.00;;;26.30;47.80;;;;;;5135547;27;20052;-84
2022/07/02 10:52:52;;;;;;;0.60;0.60;;;26.40;47.60;;;;;;5113434;27;20038;-85
2022/07/02 10:55:28;;;;;;;2.00;1.00;;;26.40;47.60;;;;;;5088317;28;20057;-85
2022/07/02 10:57:58;;;;;;;1.25;0.60;;;26.50;47.30;;;;;;5133786;27;20019;-86
2022/07/02 11:00:51;;;;;;;0.70;0.70;;;26.60;47.20;;;;;;5132369;27;20473;-84
2022/07/02 11:03:20;;;;;;;1.52;0.80;;;26.60;46.90;;;;;;5089379;28;20035;-86
2022/07/02 11:05:59;;;;;;;1.58;0.82;;;26.70;46.70;;;;;;5108463;27;20027;-87
2022/07/02 11:08:43;;;;;;;1.25;0.88;;;26.70;46.40;;;;;;5112947;27;20120;-84
2022/07/02 11:11:10;;;;;;;;;;;26.70;46.30;;;;;;5123882;27;20024;-82
2022/07/02 11:14:09;;;;;;;0.60;0.52;;;26.80;46.50;;;;;;5087656;28;19907;-81
2022/07/02 11:16:40;;;;;;;0.60;0.60;;;26.80;46.30;;;;;;5095112;27;20051;-79
2022/07/02 11:19:29;;;;;;;0.70;0.70;;;26.80;46.40;;;;;;5089096;27;20031;-80
2022/07/02 11:22:01;;;;;;;1.85;0.93;;;26.90;46.40;;;;;;5125634;27;20028;-80
2022/07/02 11:24:29;;;;;;;0.75;0.70;;;26.90;46.00;;;;;;5090751;27;20039;-81
2022/07/02 11:26:55;;;;;;;1.48;1.08;;;26.90;45.90;;;;;;5098692;27;20072;-78
2022/07/02 11:29:21;;;;;;;1.58;0.90;;;26.90;45.90;;;;;;5114660;27;20467;-78
2022/07/02 11:31:49;;;;;;;1.67;0.90;;;26.90;46.00;;;;;;5094273;27;20023;-80
2022/07/02 11:34:31;;;;;;;1.25;0.70;;;27.00;45.90;;;;;;5107240;27;20120;-81
2022/07/02 11:36:58;;;;;;;1.98;0.73;;;27.00;45.70;;;;;;5071238;28;20052;-83
2022/07/02 11:39:25;;;;;;;1.40;0.75;;;27.00;45.60;;;;;;5113291;28;20031;-82
2022/07/02 11:41:51;;;;;;;0.70;0.70;;;27.00;45.60;;;;;;5091591;27;20035;-81
2022/07/02 11:44:22;;;;;;;0.70;0.70;;;27.00;45.50;;;;;;5107959;27;20739;-82
2022/07/02 11:46:59;;;;;;;0.80;0.70;;;27.00;46.10;;;;;;5124918;27;20019;-82
2022/07/02 11:49:31;;;;;;;0.77;0.77;;;27.00;45.50;;;;;;5113950;27;20031;-80
2022/07/02 11:51:58;;;;;;;0.80;0.70;;;27.10;45.60;;;;;;5093445;28;20031;-81
2022/07/02 11:54:25;;;;;;;0.82;0.73;;;27.10;45.50;;;;;;5092520;27;20037;-82
2022/07/02 11:56:54;;;;;;;0.63;0.63;;;27.10;45.40;;;;;;5111143;27;20069;-88
2022/07/02 11:59:21;;;;;;;1.42;0.80;;;27.10;45.60;;;;;;5116699;27;20045;-85
2022/07/02 12:01:49;;;;;;;0.93;0.70;;;27.20;45.80;;;;;;5085832;27;20019;-85
2022/07/02 12:04:17;;;;;;;1.83;0.93;;;27.20;46.00;;;;;;5090902;27;20055;-85
2022/07/02 12:06:45;;;;;;;1.20;0.85;;;27.30;46.20;;;;;;5108763;27;20105;-84
2022/07/02 12:09:15;;;;;;;1.05;0.63;;;27.30;46.30;;;;;;5088768;28;20023;-85
2022/07/02 12:11:47;;;;;;;1.05;0.70;;;27.30;46.50;;;;;;5098976;27;20027;-85
2022/07/02 12:14:14;;;;;;;1.90;0.80;;;27.40;46.70;;;;;;5087287;28;20042;-85
2022/07/02 12:16:45;;;;;;;0.57;0.57;;;27.40;46.80;;;;;;5113169;27;20031;-85
2022/07/02 12:19:15;;;;;;;0.88;0.60;;;27.50;47.00;;;;;;5095806;28;20019;-86
2022/07/02 12:21:42;;;;;;;1.60;0.73;;;27.50;47.10;;;;;;5130332;27;20098;-85
2022/07/02 12:24:16;;;;;;;1.92;0.95;;;27.50;47.20;;;;;;5096635;27;20028;-85
2022/07/02 12:26:44;;;;;;;1.15;0.68;;;27.50;47.30;;;;;;5108801;27;20057;-85
2022/07/02 12:32:04;;;;;;;0.98;0.60;;;27.60;47.60;;;;;;5122659;27;20107;-84
2022/07/02 12:34:44;;;;;;;1.67;0.60;;;27.60;47.70;;;;;;5108868;27;20042;-85
2022/07/02 12:37:52;;;;;;;0.52;0.52;;;27.60;47.80;;;;;;5139816;27;20035;-85
2022/07/02 12:40:24;;;;;;;0.73;0.60;;;27.70;48.00;;;;;;5105856;27;20099;-89
2022/07/02 12:42:58;;;;;;;0.75;0.60;;;27.70;48.00;;;;;;5090881;28;20039;-89
2022/07/02 12:45:24;;;;;;;0.68;0.68;;;27.70;48.00;;;;;;5115853;27;20056;-88
2022/07/02 12:48:00;;;;;;;0.88;0.77;;;27.70;48.00;;;;;;5111422;28;20023;-88
2022/07/02 12:50:30;;;;;;;0.57;0.57;;;27.70;48.00;;;;;;5111791;27;20054;-90
2022/07/02 12:53:02;;;;;;;0.98;0.70;;;27.80;48.10;;;;;;5109863;27;20027;-91
2022/07/02 12:55:27;;;;;;;0.63;0.60;;;27.80;48.10;;;;;;5102914;27;20101;-89
2022/07/02 12:58:05;;;;;;;0.50;0.50;;;27.80;48.10;;;;;;5095407;28;20037;-89
2022/07/02 13:00:32;;;;;;;0.60;0.60;;;27.80;48.20;;;;;;5096735;27;20019;-89